Terminal Aerodrome Forecast
Issued by NWS

Home | Current Version | Previous Version | Text Only | Print | Product List | Glossary On
Versions: 1 2 3 4 5 6 7 8 9 10 11 12 13 14 15 16 17 18 19
000
FTUS46 KOTX 231841 AAA
TAFPUW
TAF AMD
KPUW 231841Z 2319/2418 24015G29KT P6SM SCT025 BKN035
      TEMPO 2320/2324 -SHRA BKN025 OVC030
     FM240000 23014KT P6SM -SHRA BKN030 OVC100
     FM240300 16010KT P6SM -RA SCT020 OVC030
     FM240800 21012KT P6SM -RA OVC020=

USA.gov is the U.S. government's official web portal to all federal, state and local government web resources and services.